createdAt,value
2018-11-23T00:00:23.367Z,34.80
2018-11-23T00:02:52.520Z,34.60
2018-11-23T00:05:21.522Z,30.77
2018-11-23T00:07:50.809Z,35.90
2018-11-23T00:10:20.817Z,32.88
2018-11-23T00:12:50.271Z,46.63
2018-11-23T00:15:20.144Z,36.48
2018-11-23T00:17:48.707Z,33.30
2018-11-23T00:20:19.770Z,27.87
2018-11-23T00:22:48.325Z,25.95
2018-11-23T00:25:18.201Z,23.67
2018-11-23T00:27:47.132Z,27.15
2018-11-23T00:30:16.965Z,23.25
2018-11-23T00:32:45.859Z,23.70
2018-11-23T00:35:16.252Z,25.52
2018-11-23T00:37:45.575Z,28.00
2018-11-23T00:40:23.681Z,25.85
2018-11-23T00:42:52.659Z,22.48
2018-11-23T00:45:21.657Z,20.02
2018-11-23T00:47:50.965Z,24.10
2018-11-23T00:50:20.730Z,23.87
2018-11-23T00:52:50.607Z,24.60
2018-11-23T00:55:20.192Z,28.25
2018-11-23T00:57:48.712Z,33.10
2018-11-23T01:00:26.795Z,35.68
2018-11-23T01:02:56.153Z,31.70
2018-11-23T01:05:24.668Z,28.40
2018-11-23T01:07:53.178Z,29.57
2018-11-23T01:10:23.032Z,22.42
2018-11-23T01:12:52.830Z,24.63
2018-11-23T01:15:21.567Z,25.08
2018-11-23T01:17:50.236Z,22.35
2018-11-23T01:20:22.097Z,23.75
2018-11-23T01:22:51.387Z,23.77
2018-11-23T01:25:21.414Z,20.37
2018-11-23T01:27:51.081Z,20.68
2018-11-23T01:30:23.444Z,22.90
2018-11-23T01:32:52.105Z,21.07
2018-11-23T01:35:20.707Z,22.82
2018-11-23T01:37:50.029Z,21.80
2018-11-23T01:40:21.210Z,17.62
2018-11-23T01:42:50.561Z,21.00
2018-11-23T01:45:19.301Z,20.35
2018-11-23T01:47:48.195Z,18.87
2018-11-23T01:50:19.050Z,19.32
2018-11-23T01:52:48.687Z,20.62
2018-11-23T01:55:17.989Z,21.00
2018-11-23T01:57:47.051Z,20.30
2018-11-23T02:00:18.590Z,16.12
2018-11-23T02:02:47.815Z,18.87
2018-11-23T02:05:16.425Z,18.70
2018-11-23T02:07:44.906Z,19.15
2018-11-23T02:10:15.033Z,20.40
2018-11-23T02:12:43.817Z,20.97
2018-11-23T02:15:14.970Z,19.45
2018-11-23T02:17:43.599Z,20.50
2018-11-23T02:20:13.762Z,21.17
2018-11-23T02:22:42.616Z,26.40
2018-11-23T02:25:11.810Z,16.73
2018-11-23T02:27:41.305Z,18.75
2018-11-23T02:30:13.635Z,18.52
2018-11-23T02:32:42.690Z,21.57
2018-11-23T02:35:11.896Z,18.05
2018-11-23T02:37:40.602Z,20.85
2018-11-23T02:40:10.604Z,18.57
2018-11-23T02:42:39.656Z,18.35
2018-11-23T02:45:12.256Z,20.32
2018-11-23T02:47:41.656Z,21.10
2018-11-23T02:50:10.413Z,17.60
2018-11-23T02:52:39.625Z,18.40
2018-11-23T02:55:09.161Z,19.77
2018-11-23T02:57:37.933Z,17.67
2018-11-23T03:00:09.002Z,18.48
2018-11-23T03:02:37.527Z,19.62
2018-11-23T03:05:07.036Z,19.10
2018-11-23T03:07:36.592Z,15.70
2018-11-23T03:10:05.956Z,17.07
2018-11-23T03:12:34.585Z,16.87
2018-11-23T03:15:03.177Z,19.12
2018-11-23T03:17:31.883Z,17.75
2018-11-23T03:20:00.449Z,21.00
2018-11-23T03:22:29.045Z,19.73
2018-11-23T03:24:57.637Z,16.93
2018-11-23T03:27:26.101Z,16.82
2018-11-23T03:29:54.616Z,18.30
2018-11-23T03:32:23.656Z,18.50
2018-11-23T03:34:52.238Z,17.27
2018-11-23T03:37:20.730Z,16.90
2018-11-23T03:39:49.432Z,19.70
2018-11-23T03:42:18.385Z,16.00
2018-11-23T03:44:47.117Z,15.93
2018-11-23T03:47:15.714Z,17.65
2018-11-23T03:49:44.544Z,17.48
2018-11-23T03:52:13.825Z,15.78
2018-11-23T03:54:42.396Z,18.55
2018-11-23T03:57:11.004Z,17.30
2018-11-23T03:59:40.207Z,18.73
2018-11-23T04:02:08.817Z,15.90
2018-11-23T04:04:37.399Z,19.67
2018-11-23T04:07:06.330Z,18.10
2018-11-23T04:09:34.981Z,17.48
2018-11-23T04:12:04.312Z,18.25
2018-11-23T04:14:32.948Z,19.40
2018-11-23T04:17:01.451Z,15.60
2018-11-23T04:19:30.121Z,20.77
2018-11-23T04:21:58.717Z,17.10
2018-11-23T04:24:27.292Z,18.10
2018-11-23T04:26:55.893Z,15.55
2018-11-23T04:29:24.462Z,16.82
2018-11-23T04:31:52.989Z,16.20
2018-11-23T04:34:21.933Z,14.30
2018-11-23T04:36:50.425Z,16.07
2018-11-23T04:39:18.948Z,18.45
2018-11-23T04:41:48.036Z,14.87
2018-11-23T04:44:16.522Z,17.80
2018-11-23T04:46:45.975Z,16.27
2018-11-23T04:49:14.524Z,16.70
2018-11-23T04:51:43.185Z,15.90
2018-11-23T04:54:11.720Z,14.93
2018-11-23T04:56:40.877Z,14.47
2018-11-23T04:59:09.333Z,16.97
2018-11-23T05:01:38.072Z,16.23
2018-11-23T05:04:06.838Z,20.82
2018-11-23T05:06:35.466Z,15.98
2018-11-23T05:09:06.304Z,15.45
2018-11-23T05:11:35.033Z,18.60
2018-11-23T05:14:03.785Z,17.67
2018-11-23T05:16:32.897Z,20.37
2018-11-23T05:19:01.547Z,15.28
2018-11-23T05:21:30.225Z,17.67
2018-11-23T05:23:59.060Z,17.67
2018-11-23T05:26:27.934Z,16.48
2018-11-23T05:28:56.852Z,17.40
2018-11-23T05:31:26.632Z,23.50
2018-11-23T05:33:55.301Z,16.23
2018-11-23T05:36:23.870Z,14.95
2018-11-23T05:38:52.518Z,14.58
2018-11-23T05:41:21.161Z,19.48
2018-11-23T05:43:50.240Z,15.95
2018-11-23T05:46:18.713Z,15.80
2018-11-23T05:48:47.513Z,17.07
2018-11-23T05:51:16.111Z,17.62
2018-11-23T05:53:44.647Z,17.07
2018-11-23T05:56:13.317Z,15.65
2018-11-23T05:58:42.753Z,16.97
2018-11-23T06:01:11.256Z,14.47
2018-11-23T06:03:39.924Z,14.93
2018-11-23T06:06:08.708Z,16.10
2018-11-23T06:08:37.227Z,17.82
2018-11-23T06:11:06.466Z,18.87
2018-11-23T06:13:35.073Z,16.57
2018-11-23T06:16:03.680Z,21.02
2018-11-23T06:18:32.889Z,18.45
2018-11-23T06:21:02.068Z,20.72
2018-11-23T06:23:31.072Z,16.60
2018-11-23T06:26:18.723Z,19.55
2018-11-23T06:28:47.559Z,20.90
2018-11-23T06:31:16.291Z,19.27
2018-11-23T06:33:47.166Z,18.45
2018-11-23T06:36:15.701Z,22.52
2018-11-23T06:38:44.249Z,14.78
2018-11-23T06:41:13.573Z,14.78
2018-11-23T06:43:42.072Z,14.78
2018-11-23T06:46:11.869Z,19.82
2018-11-23T06:48:40.388Z,17.98
2018-11-23T06:51:09.286Z,18.52
2018-11-23T06:53:38.043Z,18.15
2018-11-23T06:56:07.020Z,17.10
2018-11-23T06:58:35.863Z,17.92
2018-11-23T07:01:04.605Z,17.45
2018-11-23T07:03:33.265Z,19.57
2018-11-23T07:06:01.872Z,15.93
2018-11-23T07:08:30.698Z,20.77
2018-11-23T07:11:00.888Z,16.97
2018-11-23T07:13:30.409Z,16.67
2018-11-23T07:15:59.334Z,18.32
2018-11-23T07:18:28.257Z,18.87
2018-11-23T07:20:56.911Z,17.70
2018-11-23T07:23:25.742Z,16.82
2018-11-23T07:25:55.127Z,17.82
2018-11-23T07:28:23.774Z,17.82
2018-11-23T07:30:52.400Z,16.60
2018-11-23T07:33:21.285Z,16.42
2018-11-23T07:35:49.919Z,18.07
2018-11-23T07:38:18.565Z,17.67
2018-11-23T07:40:58.330Z,16.80
2018-11-23T07:43:26.852Z,14.00
2018-11-23T07:45:55.549Z,16.62
2018-11-23T07:48:24.262Z,21.60
2018-11-23T07:50:53.512Z,19.98
2018-11-23T07:53:22.180Z,18.55
2018-11-23T07:55:50.992Z,27.27
2018-11-23T07:58:19.724Z,27.22
2018-11-23T08:00:48.340Z,30.35
2018-11-23T08:03:16.941Z,28.52
2018-11-23T08:05:45.444Z,35.58
2018-11-23T08:08:14.096Z,48.70
2018-11-23T08:10:41.943Z,90.40
2018-11-23T08:13:10.525Z,62.98
2018-11-23T08:15:39.778Z,50.43
2018-11-23T08:18:08.993Z,53.85
2018-11-23T08:20:37.610Z,53.25
2018-11-23T08:23:06.126Z,58.95
2018-11-23T08:25:34.633Z,50.80
2018-11-23T08:28:03.736Z,50.67
2018-11-23T08:30:32.253Z,57.03
2018-11-23T08:33:00.833Z,67.50
2018-11-23T08:35:30.106Z,71.17
2018-11-23T08:37:58.725Z,57.38
2018-11-23T08:40:28.010Z,48.85
2018-11-23T08:42:57.289Z,40.95
2018-11-23T08:45:26.838Z,46.35
2018-11-23T08:47:55.386Z,45.73
2018-11-23T08:50:25.566Z,42.78
2018-11-23T08:52:54.233Z,37.28
2018-11-23T08:55:23.342Z,52.70
2018-11-23T08:57:51.883Z,47.20
2018-11-23T09:00:25.048Z,37.35
2018-11-23T09:02:55.218Z,30.17
2018-11-23T09:05:23.846Z,35.92
2018-11-23T09:07:53.518Z,30.52
2018-11-23T09:10:23.760Z,49.80
2018-11-23T09:12:54.180Z,42.48
2018-11-23T09:15:22.987Z,62.80
2018-11-23T09:17:51.585Z,100.80
2018-11-23T09:20:20.527Z,250.07
2018-11-23T09:22:49.373Z,386.43
2018-11-23T09:25:20.336Z,360.98
2018-11-23T09:27:49.243Z,271.23
2018-11-23T09:30:19.617Z,290.82
2018-11-23T09:32:48.940Z,456.73
2018-11-23T09:35:17.788Z,393.50
2018-11-23T09:37:47.027Z,391.95
2018-11-23T09:40:17.933Z,312.50
2018-11-23T09:42:46.745Z,253.00
2018-11-23T09:45:24.374Z,244.93
2018-11-23T09:47:54.434Z,94.70
2018-11-23T09:50:23.988Z,70.15
2018-11-23T09:52:53.943Z,65.17
2018-11-23T09:55:24.066Z,62.60
2018-11-23T09:57:52.191Z,73.42
2018-11-23T10:00:23.185Z,67.95
2018-11-23T10:02:52.974Z,38.78
2018-11-23T10:05:22.200Z,41.93
2018-11-23T10:07:52.460Z,29.33
2018-11-23T10:10:21.781Z,29.27
2018-11-23T10:12:50.624Z,29.42
2018-11-23T10:15:19.960Z,29.73
2018-11-23T10:17:48.748Z,27.83
2018-11-23T10:20:22.462Z,26.00
2018-11-23T10:22:51.401Z,36.43
2018-11-23T10:25:21.624Z,35.43
2018-11-23T10:27:50.379Z,35.40
2018-11-23T10:30:21.165Z,37.63
2018-11-23T10:32:51.318Z,37.80
2018-11-23T10:35:19.844Z,45.50
2018-11-23T10:37:49.712Z,46.23
2018-11-23T10:40:19.881Z,40.73
2018-11-23T10:42:48.521Z,37.27
2018-11-23T10:45:20.357Z,31.90
2018-11-23T10:47:49.926Z,30.27
2018-11-23T10:50:19.794Z,37.30
2018-11-23T10:52:48.629Z,34.70
2018-11-23T10:55:19.594Z,31.83
2018-11-23T10:57:48.396Z,34.07
2018-11-23T11:00:23.199Z,31.70
2018-11-23T11:02:58.438Z,41.43
2018-11-23T11:05:32.269Z,41.70
2018-11-23T11:08:02.924Z,41.10
2018-11-23T11:10:31.557Z,40.27
2018-11-23T11:13:00.513Z,37.37
2018-11-23T11:15:29.189Z,37.10
2018-11-23T11:17:57.803Z,42.80
2018-11-23T11:20:27.055Z,41.30
2018-11-23T11:22:56.165Z,42.93
2018-11-23T11:25:24.921Z,42.60
2018-11-23T11:27:54.193Z,40.73
2018-11-23T11:30:22.895Z,43.30
2018-11-23T11:32:52.142Z,42.30
2018-11-23T11:35:20.817Z,37.83
2018-11-23T11:37:49.356Z,37.07
2018-11-23T11:40:19.259Z,47.77
2018-11-23T11:42:47.752Z,67.37
2018-11-23T11:45:19.401Z,38.13
2018-11-23T11:47:48.579Z,33.37
2018-11-23T11:50:17.782Z,38.83
2018-11-23T11:52:47.918Z,31.00
2018-11-23T11:55:18.024Z,31.57
2018-11-23T11:57:47.380Z,33.53
2018-11-23T12:00:23.533Z,31.87
2018-11-23T12:02:52.589Z,34.63
2018-11-23T12:05:21.230Z,34.67
2018-11-23T12:07:50.040Z,36.33
2018-11-23T12:10:20.465Z,33.43
2018-11-23T12:12:49.105Z,35.33
2018-11-23T12:15:18.151Z,31.37
2018-11-23T12:17:46.880Z,30.23
2018-11-23T12:20:17.988Z,34.37
2018-11-23T12:22:47.375Z,29.87
2018-11-23T12:25:16.231Z,33.17
2018-11-23T12:27:44.910Z,35.40
2018-11-23T12:30:17.380Z,30.53
2018-11-23T12:32:47.056Z,34.73
2018-11-23T12:35:16.528Z,34.97
2018-11-23T12:37:45.091Z,36.40
2018-11-23T12:40:15.423Z,32.63
2018-11-23T12:42:44.828Z,30.20
2018-11-23T12:45:15.053Z,27.67
2018-11-23T12:47:43.704Z,26.30
2018-11-23T12:50:15.143Z,26.90
2018-11-23T12:52:43.885Z,24.80
2018-11-23T12:55:13.045Z,25.43
2018-11-23T12:57:42.591Z,25.43
2018-11-23T13:00:19.646Z,24.73
2018-11-23T13:02:50.676Z,25.50
2018-11-23T13:05:20.220Z,23.13
2018-11-23T13:07:49.568Z,25.97
2018-11-23T13:10:18.231Z,27.87
2018-11-23T13:12:50.918Z,31.70
2018-11-23T13:15:15.968Z,37.63
2018-11-23T13:17:44.764Z,31.77
2018-11-23T13:20:14.786Z,29.83
2018-11-23T13:22:43.740Z,24.93
2018-11-23T13:25:14.985Z,28.53
2018-11-23T13:27:44.657Z,27.90
2018-11-23T13:30:15.546Z,28.70
2018-11-23T13:32:44.644Z,26.50
2018-11-23T13:35:15.114Z,31.10
2018-11-23T13:37:43.865Z,26.37
2018-11-23T13:40:15.019Z,32.00
2018-11-23T13:42:43.942Z,28.40
2018-11-23T13:45:13.810Z,42.43
2018-11-23T13:47:42.668Z,38.23
2018-11-23T13:50:15.011Z,31.33
2018-11-23T13:52:44.777Z,29.40
2018-11-23T13:55:13.647Z,30.13
2018-11-23T13:57:42.515Z,26.47
2018-11-23T14:00:16.554Z,31.27
2018-11-23T14:02:45.693Z,27.23
2018-11-23T14:05:23.229Z,31.57
2018-11-23T14:07:53.379Z,29.30
2018-11-23T14:10:23.432Z,28.03
2018-11-23T14:12:52.186Z,27.57
2018-11-23T14:15:22.434Z,25.57
2018-11-23T14:17:51.977Z,27.57
2018-11-23T14:20:21.749Z,25.43
2018-11-23T14:22:50.653Z,27.87
2018-11-23T14:25:21.172Z,31.33
2018-11-23T14:27:50.473Z,30.73
2018-11-23T14:30:23.084Z,31.93
2018-11-23T14:32:51.955Z,36.53
2018-11-23T14:35:23.478Z,32.37
2018-11-23T14:37:53.236Z,31.87
2018-11-23T14:40:22.547Z,32.93
2018-11-23T14:42:51.512Z,28.40
2018-11-23T14:45:22.918Z,28.53
2018-11-23T14:47:52.558Z,26.20
2018-11-23T14:50:23.616Z,29.33
2018-11-23T14:52:53.552Z,26.67
2018-11-23T14:55:22.681Z,24.97
2018-11-23T14:57:51.832Z,24.80
2018-11-23T15:00:23.845Z,26.10
2018-11-23T15:02:53.797Z,21.97
2018-11-23T15:05:22.650Z,20.13
2018-11-23T15:07:51.426Z,19.77
2018-11-23T15:10:23.552Z,19.40
2018-11-23T15:12:54.032Z,18.03
2018-11-23T15:15:24.112Z,19.00
2018-11-23T15:17:53.543Z,15.97
2018-11-23T15:20:25.882Z,18.00
2018-11-23T15:22:56.349Z,14.47
2018-11-23T15:25:25.905Z,17.30
2018-11-23T15:27:54.546Z,13.73
2018-11-23T15:30:27.532Z,14.80
2018-11-23T15:32:56.713Z,14.50
2018-11-23T15:35:25.725Z,14.20
2018-11-23T15:37:54.501Z,13.23
2018-11-23T15:40:25.241Z,13.60
2018-11-23T15:42:57.220Z,14.77
2018-11-23T15:45:27.046Z,13.33
2018-11-23T15:47:55.959Z,15.07
2018-11-23T15:50:27.649Z,15.07
2018-11-23T15:52:56.325Z,12.63
2018-11-23T15:55:27.112Z,16.30
2018-11-23T15:57:58.217Z,14.03
2018-11-23T16:00:32.572Z,13.03
2018-11-23T16:03:01.401Z,16.33
2018-11-23T16:05:30.103Z,15.83
2018-11-23T16:08:01.438Z,14.93
2018-11-23T16:10:33.208Z,16.33
2018-11-23T16:13:10.723Z,16.33
2018-11-23T16:15:32.466Z,15.40
2018-11-23T16:18:01.642Z,15.17
2018-11-23T16:20:32.716Z,14.23
2018-11-23T16:23:03.947Z,16.00
2018-11-23T16:25:32.844Z,12.50
2018-11-23T16:28:04.237Z,12.37
2018-11-23T16:30:38.173Z,17.77
2018-11-23T16:33:08.340Z,14.57
2018-11-23T16:35:38.167Z,17.97
2018-11-23T16:38:09.296Z,14.07
2018-11-23T16:40:41.774Z,13.80
2018-11-23T16:43:11.826Z,10.07
2018-11-23T16:45:41.277Z,15.40
2018-11-23T16:48:10.939Z,27.20
2018-11-23T16:50:39.885Z,53.97
2018-11-23T16:53:08.811Z,40.97
2018-11-23T16:55:37.707Z,39.93
2018-11-23T16:58:07.729Z,33.47
2018-11-23T17:00:38.435Z,42.63
2018-11-23T17:03:10.124Z,41.80
2018-11-23T17:05:40.297Z,15.33
2018-11-23T17:08:09.959Z,12.70
2018-11-23T17:10:38.806Z,12.57
2018-11-23T17:13:07.555Z,12.50
2018-11-23T17:15:36.281Z,12.27
2018-11-23T17:18:05.224Z,13.20
2018-11-23T17:20:34.337Z,13.43
2018-11-23T17:23:04.148Z,10.33
2018-11-23T17:25:33.487Z,10.17
2018-11-23T17:28:03.975Z,12.03
2018-11-23T17:30:33.513Z,10.70
2018-11-23T17:33:02.533Z,10.87
2018-11-23T17:35:31.404Z,9.47
2018-11-23T17:38:00.149Z,10.50
2018-11-23T17:40:30.625Z,10.90
2018-11-23T17:42:59.357Z,10.63
2018-11-23T17:45:30.327Z,9.87
2018-11-23T17:47:59.279Z,9.80
2018-11-23T17:50:29.538Z,9.00
2018-11-23T17:52:58.857Z,12.27
2018-11-23T17:55:27.826Z,10.67
2018-11-23T17:58:00.981Z,131.07
2018-11-23T18:00:38.566Z,52.67
2018-11-23T18:03:01.449Z,29.57
2018-11-23T18:05:31.068Z,22.70
2018-11-23T18:08:00.475Z,49.10
2018-11-23T18:10:30.532Z,39.70
2018-11-23T18:12:59.958Z,137.50
2018-11-23T18:15:30.910Z,20.83
2018-11-23T18:18:00.725Z,31.83
2018-11-23T18:20:30.425Z,32.57
2018-11-23T18:23:00.132Z,56.37
2018-11-23T18:25:30.584Z,60.83
2018-11-23T18:28:00.274Z,61.90
2018-11-23T18:30:30.181Z,41.23
2018-11-23T18:32:58.939Z,35.40
2018-11-23T18:35:27.657Z,24.63
2018-11-23T18:37:56.315Z,15.10
2018-11-23T18:40:25.141Z,16.13
2018-11-23T18:42:53.877Z,16.23
2018-11-23T18:45:23.242Z,12.40
2018-11-23T18:47:52.412Z,11.80
2018-11-23T18:50:21.655Z,11.10
2018-11-23T18:52:50.317Z,9.77
2018-11-23T18:55:19.073Z,16.37
2018-11-23T18:57:47.902Z,19.83
2018-11-23T19:00:16.841Z,19.43
2018-11-23T19:02:46.762Z,20.43
2018-11-23T19:05:20.808Z,16.87
2018-11-23T19:07:49.496Z,15.40
2018-11-23T19:10:18.284Z,16.60
2018-11-23T19:12:47.213Z,13.13
2018-11-23T19:15:17.488Z,11.53
2018-11-23T19:17:45.867Z,14.80
2018-11-23T19:20:15.906Z,14.53
2018-11-23T19:22:46.409Z,12.53
2018-11-23T19:25:15.066Z,13.97
2018-11-23T19:27:43.726Z,13.20
2018-11-23T19:30:14.788Z,12.23
2018-11-23T19:32:43.498Z,17.27
2018-11-23T19:35:12.493Z,11.10
2018-11-23T19:37:41.317Z,11.20
2018-11-23T19:40:13.853Z,12.23
2018-11-23T19:42:43.077Z,12.57
2018-11-23T19:45:13.327Z,11.10
2018-11-23T19:47:41.951Z,10.23
2018-11-23T19:50:12.758Z,12.20
2018-11-23T19:52:41.840Z,18.67
2018-11-23T19:55:11.502Z,23.83
2018-11-23T19:57:40.392Z,28.07
2018-11-23T20:00:26.264Z,27.90
2018-11-23T20:02:55.064Z,24.23
2018-11-23T20:05:23.984Z,20.03
2018-11-23T20:07:54.220Z,13.80
2018-11-23T20:10:23.901Z,14.97
2018-11-23T20:12:54.527Z,12.67
2018-11-23T20:15:23.425Z,14.90
2018-11-23T20:17:52.256Z,13.73
2018-11-23T20:20:20.958Z,13.47
2018-11-23T20:22:50.545Z,13.60
2018-11-23T20:25:20.426Z,12.40
2018-11-23T20:27:50.587Z,13.20
2018-11-23T20:30:20.031Z,12.10
2018-11-23T20:32:49.049Z,10.77
2018-11-23T20:35:19.009Z,11.77
2018-11-23T20:37:47.780Z,11.17
2018-11-23T20:40:17.660Z,9.03
2018-11-23T20:42:46.559Z,10.53
2018-11-23T20:45:15.563Z,9.43
2018-11-23T20:47:44.603Z,10.37
2018-11-23T20:50:14.589Z,10.23
2018-11-23T20:52:43.485Z,11.03
2018-11-23T20:55:17.388Z,9.80
2018-11-23T20:57:46.314Z,10.63
2018-11-23T21:00:17.860Z,10.40
2018-11-23T21:02:47.654Z,9.27
2018-11-23T21:05:17.365Z,13.43
2018-11-23T21:07:46.419Z,10.10
2018-11-23T21:10:20.335Z,10.83
2018-11-23T21:12:47.649Z,10.63
2018-11-23T21:15:17.999Z,8.73
2018-11-23T21:17:47.410Z,8.60
2018-11-23T21:20:16.074Z,10.03
2018-11-23T21:22:44.845Z,10.90
2018-11-23T21:25:13.667Z,11.00
2018-11-23T21:27:42.355Z,9.63
2018-11-23T21:30:13.881Z,15.03
2018-11-23T21:32:42.699Z,13.93
2018-11-23T21:35:12.226Z,12.37
2018-11-23T21:37:41.908Z,10.87
2018-11-23T21:40:11.772Z,10.13
2018-11-23T21:42:40.612Z,8.63
2018-11-23T21:45:13.613Z,10.10
2018-11-23T21:47:43.301Z,9.60
2018-11-23T21:50:14.184Z,8.93
2018-11-23T21:52:43.019Z,10.07
2018-11-23T21:55:14.041Z,12.27
2018-11-23T21:57:42.867Z,9.30
2018-11-23T22:00:13.327Z,10.30
2018-11-23T22:02:42.853Z,13.03
2018-11-23T22:05:11.619Z,11.70
2018-11-23T22:07:40.277Z,10.97
2018-11-23T22:10:10.869Z,11.07
2018-11-23T22:12:39.544Z,26.50
2018-11-23T22:15:10.483Z,18.13
2018-11-23T22:17:39.865Z,16.37
2018-11-23T22:20:11.324Z,19.00
2018-11-23T22:22:40.095Z,19.57
2018-11-23T22:25:11.137Z,26.60
2018-11-23T22:27:39.820Z,26.27
2018-11-23T22:30:19.679Z,29.17
2018-11-23T22:32:48.332Z,25.70
2018-11-23T22:35:17.001Z,26.07
2018-11-23T22:37:45.690Z,25.50
2018-11-23T22:40:18.339Z,24.23
2018-11-23T22:42:49.796Z,24.67
2018-11-23T22:45:18.584Z,23.00
2018-11-23T22:47:47.300Z,23.83
2018-11-23T22:50:18.089Z,22.17
2018-11-23T22:52:47.823Z,18.67
2018-11-23T22:55:16.449Z,18.30
2018-11-23T22:57:45.976Z,18.33
2018-11-23T23:00:44.219Z,18.70
2018-11-23T23:03:13.444Z,17.83
2018-11-23T23:05:42.617Z,16.97
2018-11-23T23:08:10.781Z,18.90
2018-11-23T23:10:40.149Z,18.17
2018-11-23T23:13:09.574Z,17.77
2018-11-23T23:15:38.209Z,19.97
2018-11-23T23:18:07.451Z,17.53
2018-11-23T23:20:36.685Z,19.77
2018-11-23T23:23:06.268Z,24.27
2018-11-23T23:25:34.837Z,21.97
2018-11-23T23:28:03.461Z,20.10
2018-11-23T23:30:32.009Z,21.43
2018-11-23T23:33:01.411Z,19.70
2018-11-23T23:35:30.036Z,18.70
2018-11-23T23:37:59.394Z,20.07
2018-11-23T23:40:27.978Z,22.30
2018-11-23T23:42:56.586Z,18.90
2018-11-23T23:45:25.299Z,24.00
2018-11-23T23:47:54.821Z,27.23
2018-11-23T23:50:23.440Z,24.37
2018-11-23T23:52:52.096Z,26.87
2018-11-23T23:55:20.703Z,36.27
2018-11-23T23:57:49.645Z,37.97
